Terminal Aerodrome Forecast
Issued by NWS

Home | Current Version | Previous Version | Text Only | Print | Product List | Glossary Off
Versions: 1 2 3 4 5 6 7 8 9 10 11 12 13 14 15 16 17 18

218
FTUS41 KCLE 251348 AAA
TAFFDY
TAF AMD
KFDY 251348Z 2514/2612 34008KT 3SM -RA BR OVC008
     FM251600 35010KT P6SM BKN008
     FM251800 35010KT P6SM BKN015
     FM252100 34011KT P6SM BKN040
     FM252300 36009KT P6SM SCT080
     FM260700 VRB03KT P6SM SCT200=

USA.gov is the U.S. government's official web portal to all federal, state and local government web resources and services.